PTN57W LPPT-LPFR
Flight info
| Callsign | PTN57W |
|---|---|
| Flight time | 0h 31m |
| Altitude | 23000 |
| Route | DUZOP1X DUZOP DCT ODEMI ODEMI6K |
| Aircraft | PC24/M-SBDGIRWY/LB2 |
Departure
| Time | 2026-05-07 16:15 |
|---|---|
| Airport | Lisbon Humberto Delgado Airport (LPPT) |
Arrival
| Time | 2026-05-07 16:47 |
|---|---|
| Airport | Faro - Gago Coutinho International Airport (LPFR) |
| Time | Latitude | Longitude | Altitude | Speed | Heading |
|---|---|---|---|---|---|
| 2026-05-07 15:53 | 38.77834 | -9.13175 | 336 ft | 0 kts | 16° |
| 2026-05-07 16:07 | 38.77828 | -9.13177 | 334 ft | 4 kts | 19° |
| 2026-05-07 16:07 | 38.77807 | -9.13192 | 334 ft | 4 kts | 63° |
| 2026-05-07 16:07 | 38.77807 | -9.13214 | 335 ft | 4 kts | 145° |
| 2026-05-07 16:07 | 38.77830 | -9.13225 | 336 ft | 4 kts | 163° |
| 2026-05-07 16:08 | 38.77841 | -9.13229 | 336 ft | 0 kts | 165° |
| 2026-05-07 16:11 | 38.77819 | -9.13222 | 335 ft | 9 kts | 166° |
| 2026-05-07 16:11 | 38.77744 | -9.13244 | 333 ft | 13 kts | 258° |
| 2026-05-07 16:12 | 38.77728 | -9.13333 | 335 ft | 6 kts | 246° |
| 2026-05-07 16:12 | 38.77706 | -9.13361 | 335 ft | 7 kts | 205° |
| 2026-05-07 16:12 | 38.77623 | -9.13407 | 339 ft | 19 kts | 204° |
| 2026-05-07 16:12 | 38.77495 | -9.13485 | 338 ft | 19 kts | 221° |
| 2026-05-07 16:13 | 38.77395 | -9.13529 | 343 ft | 15 kts | 166° |
| 2026-05-07 16:13 | 38.77298 | -9.13527 | 345 ft | 13 kts | 220° |
| 2026-05-07 16:13 | 38.77279 | -9.13604 | 345 ft | 6 kts | 254° |
| 2026-05-07 16:13 | 38.77267 | -9.13678 | 347 ft | 11 kts | 258° |
| 2026-05-07 16:14 | 38.77247 | -9.13801 | 351 ft | 17 kts | 258° |
| 2026-05-07 16:14 | 38.77169 | -9.13880 | 351 ft | 14 kts | 204° |
| 2026-05-07 16:14 | 38.77114 | -9.13960 | 348 ft | 16 kts | 292° |
| 2026-05-07 16:14 | 38.77164 | -9.14076 | 353 ft | 17 kts | 327° |
| 2026-05-07 16:15 | 38.77386 | -9.13990 | 361 ft | 71 kts | 23° |
| 2026-05-07 16:15 | 38.78096 | -9.13631 | 389 ft | 145 kts | 16° |
| 2026-05-07 16:15 | 38.79146 | -9.13028 | 824 ft | 181 kts | 17° |
| 2026-05-07 16:15 | 38.80377 | -9.12238 | 1498 ft | 220 kts | 29° |
| 2026-05-07 16:16 | 38.81663 | -9.11135 | 2793 ft | 210 kts | 26° |
| 2026-05-07 16:16 | 38.82933 | -9.10244 | 4176 ft | 214 kts | 25° |
| 2026-05-07 16:16 | 38.84179 | -9.09194 | 5234 ft | 221 kts | 52° |
| 2026-05-07 16:16 | 38.84652 | -9.07424 | 6577 ft | 210 kts | 89° |
| 2026-05-07 16:17 | 38.84336 | -9.05635 | 7683 ft | 207 kts | 122° |
| 2026-05-07 16:17 | 38.83339 | -9.04321 | 8759 ft | 209 kts | 152° |
| 2026-05-07 16:17 | 38.81949 | -9.03729 | 9831 ft | 213 kts | 168° |
| 2026-05-07 16:17 | 38.80509 | -9.03291 | 10876 ft | 217 kts | 167° |
| 2026-05-07 16:18 | 38.79029 | -9.02796 | 11923 ft | 217 kts | 166° |
| 2026-05-07 16:18 | 38.77545 | -9.02289 | 12937 ft | 222 kts | 166° |
| 2026-05-07 16:18 | 38.76035 | -9.01774 | 13875 ft | 231 kts | 166° |
| 2026-05-07 16:18 | 38.74478 | -9.01182 | 14760 ft | 233 kts | 162° |
| 2026-05-07 16:19 | 38.72968 | -9.00340 | 15591 ft | 242 kts | 158° |
| 2026-05-07 16:19 | 38.71397 | -8.99457 | 16397 ft | 248 kts | 160° |
| 2026-05-07 16:19 | 38.69783 | -8.98636 | 17291 ft | 252 kts | 162° |
| 2026-05-07 16:19 | 38.68134 | -8.97814 | 18150 ft | 257 kts | 162° |
| 2026-05-07 16:20 | 38.66463 | -8.96964 | 18908 ft | 260 kts | 162° |
| 2026-05-07 16:20 | 38.64766 | -8.96095 | 19655 ft | 264 kts | 163° |
| 2026-05-07 16:20 | 38.63078 | -8.95231 | 20393 ft | 267 kts | 163° |
| 2026-05-07 16:20 | 38.61342 | -8.94348 | 21124 ft | 270 kts | 163° |
| 2026-05-07 16:21 | 38.59581 | -8.93451 | 21845 ft | 273 kts | 164° |
| 2026-05-07 16:21 | 38.57806 | -8.92546 | 22549 ft | 277 kts | 164° |
| 2026-05-07 16:21 | 38.55969 | -8.91616 | 22924 ft | 293 kts | 164° |
| 2026-05-07 16:21 | 38.53992 | -8.90619 | 22928 ft | 318 kts | 164° |
| 2026-05-07 16:22 | 38.51852 | -8.89529 | 22926 ft | 341 kts | 163° |
| 2026-05-07 16:22 | 38.49570 | -8.88363 | 22930 ft | 361 kts | 163° |
| 2026-05-07 16:22 | 38.47177 | -8.87149 | 22928 ft | 379 kts | 163° |
| 2026-05-07 16:22 | 38.44683 | -8.85881 | 22928 ft | 390 kts | 163° |
| 2026-05-07 16:23 | 38.42187 | -8.84613 | 22923 ft | 393 kts | 162° |
| 2026-05-07 16:23 | 38.39640 | -8.83318 | 22925 ft | 392 kts | 163° |
| 2026-05-07 16:23 | 38.37105 | -8.82038 | 22927 ft | 392 kts | 163° |
| 2026-05-07 16:23 | 38.34574 | -8.80757 | 22925 ft | 391 kts | 163° |
| 2026-05-07 16:24 | 38.32044 | -8.79480 | 22911 ft | 391 kts | 163° |
| 2026-05-07 16:24 | 38.29522 | -8.78204 | 22911 ft | 390 kts | 163° |
| 2026-05-07 16:24 | 38.26994 | -8.76930 | 22911 ft | 390 kts | 163° |
| 2026-05-07 16:24 | 38.24476 | -8.75659 | 22911 ft | 390 kts | 163° |
| 2026-05-07 16:25 | 38.21951 | -8.74388 | 22910 ft | 390 kts | 163° |
| 2026-05-07 16:25 | 38.19429 | -8.73118 | 22910 ft | 389 kts | 163° |
| 2026-05-07 16:25 | 38.16910 | -8.71849 | 22910 ft | 389 kts | 163° |
| 2026-05-07 16:25 | 38.14381 | -8.70579 | 22913 ft | 394 kts | 163° |
| 2026-05-07 16:26 | 38.11824 | -8.69298 | 22917 ft | 396 kts | 163° |
| 2026-05-07 16:26 | 38.09255 | -8.68004 | 22920 ft | 396 kts | 163° |
| 2026-05-07 16:26 | 38.06692 | -8.66716 | 22920 ft | 395 kts | 163° |
| 2026-05-07 16:26 | 38.05000 | -8.65869 | 22923 ft | 395 kts | 163° |
| 2026-05-07 16:27 | 38.01613 | -8.64175 | 22913 ft | 394 kts | 163° |
| 2026-05-07 16:27 | 37.99064 | -8.62897 | 22912 ft | 394 kts | 163° |
| 2026-05-07 16:27 | 37.96528 | -8.61576 | 22904 ft | 395 kts | 158° |
| 2026-05-07 16:27 | 37.94309 | -8.59453 | 22909 ft | 405 kts | 140° |
| 2026-05-07 16:28 | 37.92392 | -8.56815 | 22921 ft | 408 kts | 135° |
| 2026-05-07 16:28 | 37.90525 | -8.54088 | 22923 ft | 409 kts | 136° |
| 2026-05-07 16:28 | 37.89206 | -8.52324 | 22922 ft | 408 kts | 140° |
| 2026-05-07 16:28 | 37.87113 | -8.49980 | 22907 ft | 406 kts | 144° |
| 2026-05-07 16:29 | 37.84924 | -8.47726 | 22903 ft | 406 kts | 144° |
| 2026-05-07 16:29 | 37.82806 | -8.45347 | 22903 ft | 408 kts | 141° |
| 2026-05-07 16:29 | 37.80751 | -8.42883 | 22902 ft | 407 kts | 141° |
| 2026-05-07 16:29 | 37.78661 | -8.40479 | 22903 ft | 406 kts | 143° |
| 2026-05-07 16:30 | 37.76538 | -8.38122 | 22900 ft | 406 kts | 143° |
| 2026-05-07 16:30 | 37.74427 | -8.35741 | 22902 ft | 406 kts | 142° |
| 2026-05-07 16:30 | 37.72338 | -8.33342 | 22833 ft | 408 kts | 142° |
| 2026-05-07 16:30 | 37.70205 | -8.30916 | 22333 ft | 413 kts | 142° |
| 2026-05-07 16:31 | 37.68079 | -8.28512 | 21795 ft | 405 kts | 142° |
| 2026-05-07 16:31 | 37.66001 | -8.26160 | 21256 ft | 398 kts | 142° |
| 2026-05-07 16:31 | 37.63953 | -8.23840 | 20743 ft | 392 kts | 142° |
| 2026-05-07 16:31 | 37.61934 | -8.21557 | 20231 ft | 388 kts | 142° |
| 2026-05-07 16:32 | 37.59928 | -8.19293 | 19715 ft | 385 kts | 142° |
| 2026-05-07 16:32 | 37.57962 | -8.17071 | 19215 ft | 383 kts | 142° |
| 2026-05-07 16:32 | 37.55980 | -8.14835 | 18713 ft | 381 kts | 142° |
| 2026-05-07 16:32 | 37.54010 | -8.12615 | 18213 ft | 379 kts | 142° |
| 2026-05-07 16:33 | 37.52059 | -8.10416 | 17679 ft | 374 kts | 142° |
| 2026-05-07 16:33 | 37.50130 | -8.08241 | 17188 ft | 368 kts | 141° |
| 2026-05-07 16:33 | 37.48232 | -8.06110 | 16712 ft | 363 kts | 141° |
| 2026-05-07 16:33 | 37.46358 | -8.04001 | 16230 ft | 360 kts | 141° |
| 2026-05-07 16:34 | 37.44499 | -8.01915 | 15760 ft | 357 kts | 141° |
| 2026-05-07 16:34 | 37.42651 | -7.99839 | 15289 ft | 354 kts | 141° |
| 2026-05-07 16:34 | 37.40816 | -7.97778 | 14825 ft | 352 kts | 141° |
| 2026-05-07 16:34 | 37.38993 | -7.95742 | 14362 ft | 349 kts | 141° |
| 2026-05-07 16:35 | 37.37216 | -7.93744 | 13916 ft | 345 kts | 140° |
| 2026-05-07 16:35 | 37.35441 | -7.91752 | 13450 ft | 340 kts | 140° |
| 2026-05-07 16:35 | 37.33661 | -7.89766 | 12990 ft | 336 kts | 140° |
| 2026-05-07 16:35 | 37.31943 | -7.87856 | 12543 ft | 333 kts | 140° |
| 2026-05-07 16:36 | 37.30220 | -7.85930 | 12101 ft | 330 kts | 140° |
| 2026-05-07 16:36 | 37.28516 | -7.84004 | 11672 ft | 327 kts | 140° |
| 2026-05-07 16:36 | 37.26853 | -7.82145 | 11237 ft | 311 kts | 141° |
| 2026-05-07 16:36 | 37.25275 | -7.80399 | 10848 ft | 294 kts | 140° |
| 2026-05-07 16:37 | 37.23770 | -7.78724 | 10476 ft | 285 kts | 140° |
| 2026-05-07 16:37 | 37.22293 | -7.77077 | 10100 ft | 281 kts | 141° |
| 2026-05-07 16:37 | 37.20832 | -7.75448 | 9725 ft | 280 kts | 140° |
| 2026-05-07 16:37 | 37.19367 | -7.73821 | 9347 ft | 282 kts | 140° |
| 2026-05-07 16:38 | 37.17917 | -7.72206 | 8979 ft | 283 kts | 140° |
| 2026-05-07 16:38 | 37.16447 | -7.70570 | 8611 ft | 283 kts | 139° |
| 2026-05-07 16:38 | 37.14971 | -7.68930 | 8240 ft | 283 kts | 139° |
| 2026-05-07 16:38 | 37.13499 | -7.67298 | 7867 ft | 282 kts | 139° |
| 2026-05-07 16:39 | 37.12031 | -7.65665 | 7500 ft | 282 kts | 138° |
| 2026-05-07 16:39 | 37.10547 | -7.64020 | 7102 ft | 282 kts | 138° |
| 2026-05-07 16:39 | 37.08969 | -7.62661 | 6678 ft | 280 kts | 159° |
| 2026-05-07 16:39 | 37.07056 | -7.62381 | 6317 ft | 279 kts | 185° |
| 2026-05-07 16:40 | 37.05217 | -7.63105 | 5950 ft | 276 kts | 204° |
| 2026-05-07 16:40 | 37.03464 | -7.64098 | 5585 ft | 275 kts | 205° |
| 2026-05-07 16:40 | 37.01731 | -7.65082 | 5221 ft | 272 kts | 204° |
| 2026-05-07 16:40 | 37.00007 | -7.66032 | 4827 ft | 269 kts | 204° |
| 2026-05-07 16:41 | 36.98514 | -7.67305 | 4391 ft | 256 kts | 231° |
| 2026-05-07 16:41 | 36.97879 | -7.69292 | 4064 ft | 243 kts | 262° |
| 2026-05-07 16:41 | 36.97851 | -7.71351 | 3761 ft | 232 kts | 274° |
| 2026-05-07 16:41 | 36.98109 | -7.73299 | 3463 ft | 220 kts | 279° |
| 2026-05-07 16:42 | 36.98381 | -7.75153 | 3156 ft | 213 kts | 277° |
| 2026-05-07 16:42 | 36.98637 | -7.76939 | 2951 ft | 202 kts | 277° |
| 2026-05-07 16:42 | 36.98878 | -7.78608 | 2838 ft | 189 kts | 276° |
| 2026-05-07 16:42 | 36.99101 | -7.80152 | 2603 ft | 172 kts | 276° |
| 2026-05-07 16:43 | 36.99304 | -7.81533 | 2388 ft | 149 kts | 275° |
| 2026-05-07 16:43 | 36.99467 | -7.82654 | 2202 ft | 120 kts | 274° |
| 2026-05-07 16:43 | 36.99607 | -7.83624 | 1958 ft | 109 kts | 273° |
| 2026-05-07 16:43 | 36.99735 | -7.84543 | 1693 ft | 105 kts | 272° |
| 2026-05-07 16:44 | 36.99858 | -7.85426 | 1455 ft | 104 kts | 272° |
| 2026-05-07 16:44 | 36.99988 | -7.86339 | 1231 ft | 108 kts | 274° |
| 2026-05-07 16:44 | 37.00121 | -7.87263 | 1046 ft | 108 kts | 274° |
| 2026-05-07 16:44 | 37.00252 | -7.88182 | 845 ft | 106 kts | 273° |
| 2026-05-07 16:45 | 37.00380 | -7.89087 | 633 ft | 105 kts | 277° |
| 2026-05-07 16:45 | 37.00506 | -7.89982 | 432 ft | 104 kts | 278° |
| 2026-05-07 16:45 | 37.00618 | -7.90904 | 443 ft | 107 kts | 278° |
| 2026-05-07 16:45 | 37.00778 | -7.91830 | 466 ft | 108 kts | 278° |
| 2026-05-07 16:46 | 37.00909 | -7.92742 | 454 ft | 110 kts | 278° |
| 2026-05-07 16:46 | 37.01041 | -7.93705 | 398 ft | 114 kts | 278° |
| 2026-05-07 16:46 | 37.01173 | -7.94669 | 280 ft | 111 kts | 275° |
| 2026-05-07 16:46 | 37.01305 | -7.95604 | 101 ft | 108 kts | 276° |
| 2026-05-07 16:47 | 37.01432 | -7.96489 | 21 ft | 92 kts | 275° |
| 2026-05-07 16:47 | 37.01527 | -7.97171 | 15 ft | 68 kts | 286° |
| 2026-05-07 16:47 | 37.01599 | -7.97663 | 14 ft | 48 kts | 281° |
| 2026-05-07 16:47 | 37.01649 | -7.97965 | 17 ft | 27 kts | 289° |
| 2026-05-07 16:48 | 37.01728 | -7.98150 | 17 ft | 22 kts | 310° |
| 2026-05-07 16:48 | 37.01823 | -7.98229 | 16 ft | 14 kts | 21° |
| 2026-05-07 16:48 | 37.01846 | -7.98132 | 16 ft | 12 kts | 99° |
| 2026-05-07 16:48 | 37.01832 | -7.98031 | 16 ft | 11 kts | 101° |
| 2026-05-07 16:49 | 37.01820 | -7.97940 | 16 ft | 12 kts | 101° |
| 2026-05-07 16:49 | 37.01804 | -7.97826 | 16 ft | 15 kts | 101° |
| 2026-05-07 16:49 | 37.01784 | -7.97690 | 16 ft | 17 kts | 100° |
| 2026-05-07 16:49 | 37.01762 | -7.97531 | 16 ft | 20 kts | 99° |
| 2026-05-07 16:50 | 37.01814 | -7.97396 | 16 ft | 18 kts | 37° |
| 2026-05-07 16:50 | 37.01834 | -7.97284 | 16 ft | 13 kts | 148° |
| 2026-05-07 16:50 | 37.01786 | -7.97260 | 16 ft | 0 kts | 159° |